createdAt,value
2022-08-05T00:02:07.717Z,85.90
2022-08-05T00:07:27.063Z,99.90
2022-08-05T00:12:13.041Z,1.00
2022-08-05T00:17:19.600Z,80.20
2022-08-05T00:22:25.829Z,99.90
2022-08-05T00:27:36.262Z,1.00
2022-08-05T00:32:38.369Z,99.90
2022-08-05T00:37:53.482Z,99.90
2022-08-05T00:42:53.749Z,99.90
2022-08-05T00:48:05.390Z,99.90
2022-08-05T00:53:09.728Z,99.90
2022-08-05T00:58:16.807Z,99.90
2022-08-05T01:03:31.037Z,99.90
2022-08-05T01:08:43.344Z,99.90
2022-08-05T01:13:59.748Z,1.00
2022-08-05T01:19:56.357Z,1.00
2022-08-05T01:24:42.514Z,1.00
2022-08-05T01:29:52.113Z,1.00
2022-08-05T01:35:10.584Z,1.00
2022-08-05T01:40:14.019Z,1.00
2022-08-05T01:45:22.556Z,1.00
2022-08-05T01:50:37.698Z,1.00
2022-08-05T01:55:47.127Z,1.00
2022-08-05T02:00:55.637Z,1.00
2022-08-05T02:06:12.678Z,1.00
2022-08-05T02:11:15.186Z,1.00
2022-08-05T02:16:28.397Z,1.00
2022-08-05T02:21:43.291Z,1.00
2022-08-05T02:26:53.946Z,1.00
2022-08-05T02:31:58.592Z,1.00
2022-08-05T02:37:09.648Z,1.00
2022-08-05T02:42:22.556Z,1.00
2022-08-05T02:47:25.634Z,1.00
2022-08-05T02:52:34.679Z,1.00
2022-08-05T02:58:09.460Z,1.00
2022-08-05T03:02:50.187Z,1.00
2022-08-05T03:08:00.821Z,1.00
2022-08-05T03:18:09.593Z,1.00
2022-08-05T03:23:17.737Z,1.00
2022-08-05T03:28:23.909Z,1.00
2022-08-05T03:33:32.191Z,1.00
2022-08-05T03:38:40.055Z,1.00
2022-08-05T03:44:09.292Z,1.00
2022-08-05T03:48:54.410Z,1.00
2022-08-05T03:55:07.189Z,1.00
2022-08-05T03:59:20.704Z,1.00
2022-08-05T04:04:27.938Z,1.00
2022-08-05T04:09:36.670Z,1.00
2022-08-05T04:14:42.513Z,1.00
2022-08-05T04:19:54.583Z,1.00
2022-08-05T04:24:57.141Z,1.00
2022-08-05T04:30:04.698Z,1.00
2022-08-05T04:35:17.730Z,1.00
2022-08-05T04:40:19.770Z,1.00
2022-08-05T04:45:47.867Z,1.00
2022-08-05T04:50:53.485Z,1.00
2022-08-05T04:56:15.531Z,1.00
2022-08-05T05:00:51.397Z,1.00
2022-08-05T05:06:38.918Z,1.00
2022-08-05T05:11:03.565Z,1.00
2022-08-05T05:16:10.525Z,1.00
2022-08-05T05:21:18.024Z,1.00
2022-08-05T05:26:28.628Z,1.00
2022-08-05T05:36:37.424Z,99.90
2022-08-05T05:41:42.838Z,99.90
2022-08-05T05:46:49.647Z,99.90
2022-08-05T05:51:57.798Z,99.90
2022-08-05T05:57:02.996Z,99.90
2022-08-05T06:02:09.008Z,99.90
2022-08-05T06:07:16.087Z,99.90
2022-08-05T06:12:22.098Z,1.00
2022-08-05T06:17:30.972Z,99.90
2022-08-05T06:22:37.485Z,99.90
2022-08-05T06:28:12.137Z,91.70
2022-08-05T06:32:52.534Z,1.00
2022-08-05T06:37:59.550Z,1.00
2022-08-05T06:43:05.142Z,1.00
2022-08-05T06:48:52.683Z,1.00
2022-08-05T06:53:22.612Z,1.00
2022-08-05T06:58:35.323Z,1.00
2022-08-05T07:03:35.632Z,1.00
2022-08-05T07:08:41.982Z,99.90
2022-08-05T07:14:05.582Z,1.00
2022-08-05T07:19:12.572Z,1.00
2022-08-05T07:24:19.435Z,99.90
2022-08-05T07:30:23.947Z,99.90
2022-08-05T07:34:34.079Z,1.00
2022-08-05T07:40:26.571Z,1.00
2022-08-05T07:44:48.313Z,99.90
2022-08-05T07:49:54.840Z,1.00
2022-08-05T07:55:01.053Z,1.00
2022-08-05T08:00:10.493Z,99.90
2022-08-05T08:05:14.860Z,1.00
2022-08-05T08:10:20.611Z,1.00
2022-08-05T08:15:37.371Z,1.00
2022-08-05T08:20:43.395Z,1.00
2022-08-05T08:26:00.261Z,1.00
2022-08-05T08:30:49.969Z,99.90
2022-08-05T08:36:29.479Z,99.90
2022-08-05T08:41:06.658Z,99.90
2022-08-05T08:46:15.595Z,66.30
2022-08-05T08:51:54.581Z,6.30
2022-08-05T08:56:28.119Z,10.80
2022-08-05T09:01:33.979Z,99.90
2022-08-05T09:06:39.610Z,79.00
2022-08-05T09:11:51.758Z,7.40
2022-08-05T09:16:54.687Z,60.00
2022-08-05T09:22:22.173Z,30.50
2022-08-05T09:27:09.845Z,99.90
2022-08-05T09:32:40.092Z,99.90
2022-08-05T09:38:17.953Z,99.90
2022-08-05T09:42:41.656Z,1.00
2022-08-05T09:47:56.189Z,1.00
2022-08-05T09:52:57.723Z,1.00
2022-08-05T09:58:14.767Z,1.00
2022-08-05T10:03:20.680Z,1.00
2022-08-05T10:08:36.167Z,1.00
2022-08-05T10:13:45.732Z,1.00
2022-08-05T10:18:44.833Z,1.00
2022-08-05T10:23:59.497Z,1.00
2022-08-05T10:28:59.929Z,1.00
2022-08-05T10:34:07.854Z,1.00
2022-08-05T10:39:25.182Z,1.00
2022-08-05T10:44:30.527Z,1.00
2022-08-05T10:49:48.846Z,1.00
2022-08-05T10:55:06.108Z,10.10
2022-08-05T11:00:24.940Z,1.00
2022-08-05T11:05:32.119Z,1.00
2022-08-05T11:10:50.319Z,1.00
2022-08-05T11:16:00.454Z,1.00
2022-08-05T11:20:59.063Z,1.00
2022-08-05T11:26:10.219Z,1.00
2022-08-05T11:31:54.202Z,1.00
2022-08-05T11:36:44.815Z,98.40
2022-08-05T11:42:01.264Z,99.90
2022-08-05T11:47:10.868Z,27.60
2022-08-05T11:52:11.467Z,1.00
2022-08-05T11:57:26.065Z,1.00
2022-08-05T12:02:31.701Z,1.00
2022-08-05T12:08:07.900Z,1.00
2022-08-05T12:12:58.131Z,19.40
2022-08-05T12:18:04.274Z,1.00
2022-08-05T12:23:14.608Z,1.00
2022-08-05T12:28:37.954Z,1.00
2022-08-05T12:33:44.099Z,1.00
2022-08-05T12:38:52.591Z,1.00
2022-08-05T12:44:02.057Z,1.00
2022-08-05T12:49:16.686Z,1.00
2022-08-05T12:54:26.619Z,24.70
2022-08-05T13:00:08.809Z,1.00
2022-08-05T13:04:52.253Z,9.40
2022-08-05T13:09:57.061Z,92.20
2022-08-05T13:15:05.475Z,43.50
2022-08-05T13:20:14.681Z,1.00
2022-08-05T13:25:52.152Z,1.00
2022-08-05T13:30:33.802Z,1.00
2022-08-05T13:35:47.625Z,1.00
2022-08-05T13:40:49.968Z,1.00
2022-08-05T13:45:52.533Z,1.00
2022-08-05T13:51:07.577Z,1.00
2022-08-05T13:56:18.017Z,1.00
2022-08-05T14:01:25.909Z,1.00
2022-08-05T14:06:28.719Z,1.00
2022-08-05T14:12:04.488Z,1.00
2022-08-05T14:16:44.368Z,1.00
2022-08-05T14:22:09.724Z,1.00
2022-08-05T14:27:16.791Z,1.00
2022-08-05T14:32:12.325Z,1.00
2022-08-05T14:37:14.181Z,1.00
2022-08-05T14:42:21.781Z,1.00
2022-08-05T14:48:03.361Z,1.00
2022-08-05T14:52:52.052Z,1.00
2022-08-05T14:57:54.337Z,1.00
2022-08-05T15:02:48.513Z,1.00
2022-08-05T15:08:06.481Z,1.00
2022-08-05T15:13:04.811Z,1.00
2022-08-05T15:18:10.503Z,1.00
2022-08-05T15:23:18.800Z,1.00
2022-08-05T15:28:27.809Z,1.00
2022-08-05T15:34:18.506Z,1.00
2022-08-05T15:38:41.053Z,1.00
2022-08-05T15:43:47.138Z,1.00
2022-08-05T15:49:00.936Z,1.00
2022-08-05T15:54:19.918Z,1.00
2022-08-05T15:59:27.366Z,1.00
2022-08-05T16:04:35.183Z,1.00
2022-08-05T16:09:41.556Z,1.00
2022-08-05T16:14:47.965Z,1.00
2022-08-05T16:20:05.296Z,1.00
2022-08-05T16:25:00.809Z,1.00
2022-08-05T16:30:23.133Z,1.00
2022-08-05T16:35:18.749Z,1.00
2022-08-05T16:40:29.470Z,1.00
2022-08-05T16:46:06.669Z,1.00
2022-08-05T16:50:39.842Z,1.00
2022-08-05T16:55:46.836Z,1.00
2022-08-05T17:00:52.082Z,1.00
2022-08-05T17:05:59.317Z,1.00
2022-08-05T17:11:05.354Z,1.00
2022-08-05T17:16:32.556Z,1.00
2022-08-05T17:21:21.029Z,1.00
2022-08-05T17:26:28.778Z,1.00
2022-08-05T17:31:57.126Z,1.00
2022-08-05T17:36:42.186Z,1.00
2022-08-05T17:42:28.441Z,1.00
2022-08-05T17:46:56.412Z,1.00
2022-08-05T17:52:03.134Z,1.00
2022-08-05T17:57:12.375Z,1.00
2022-08-05T18:02:16.293Z,1.00
2022-08-05T18:07:21.586Z,1.00
2022-08-05T18:12:27.410Z,1.00
2022-08-05T18:17:59.162Z,1.00
2022-08-05T18:22:53.968Z,1.00
2022-08-05T18:27:52.053Z,1.00
2022-08-05T18:33:00.135Z,99.90
2022-08-05T18:38:02.045Z,99.90
2022-08-05T18:43:16.588Z,99.90
2022-08-05T18:48:30.629Z,1.00
2022-08-05T18:53:26.345Z,1.00
2022-08-05T18:58:32.194Z,1.00
2022-08-05T19:03:55.750Z,1.00
2022-08-05T19:08:47.174Z,99.90
2022-08-05T19:14:00.723Z,99.90
2022-08-05T19:19:00.662Z,1.00
2022-08-05T19:24:12.606Z,1.00
2022-08-05T19:29:14.026Z,1.00
2022-08-05T19:34:21.459Z,1.00
2022-08-05T19:39:28.318Z,1.00
2022-08-05T19:44:37.450Z,1.00
2022-08-05T19:49:41.415Z,1.00
2022-08-05T19:54:47.680Z,1.00
2022-08-05T20:00:01.799Z,1.00
2022-08-05T20:05:01.222Z,1.00
2022-08-05T20:10:13.427Z,1.00
2022-08-05T20:15:48.816Z,1.00
2022-08-05T20:20:25.829Z,16.30
2022-08-05T20:25:39.767Z,46.80
2022-08-05T20:30:42.063Z,97.50
2022-08-05T20:35:47.092Z,99.90
2022-08-05T20:40:53.715Z,99.90
2022-08-05T20:46:01.908Z,99.90
2022-08-05T20:51:08.349Z,99.90
2022-08-05T20:56:14.185Z,8.90
2022-08-05T21:01:19.847Z,37.20
2022-08-05T21:06:28.326Z,27.90
2022-08-05T21:12:07.726Z,1.00
2022-08-05T21:16:40.921Z,30.30
2022-08-05T21:21:50.949Z,18.20
2022-08-05T21:26:58.628Z,1.60
2022-08-05T21:32:04.352Z,22.00
2022-08-05T21:37:08.466Z,20.60
2022-08-05T21:42:30.924Z,94.30
2022-08-05T21:47:54.967Z,39.70
2022-08-05T21:52:28.984Z,1.00
2022-08-05T21:57:34.277Z,31.10
2022-08-05T22:02:41.475Z,99.90
2022-08-05T22:07:58.323Z,99.90
2022-08-05T22:12:57.379Z,47.40
2022-08-05T22:18:02.925Z,28.30
2022-08-05T22:24:02.728Z,1.00
2022-08-05T22:28:33.875Z,1.00
2022-08-05T22:33:56.890Z,1.00
2022-08-05T22:38:48.912Z,1.00
2022-08-05T22:43:55.863Z,1.00
2022-08-05T22:49:01.066Z,1.00
2022-08-05T22:54:07.245Z,1.00
2022-08-05T22:59:44.251Z,1.00
2022-08-05T23:04:21.568Z,1.00
2022-08-05T23:09:27.997Z,1.00
2022-08-05T23:14:33.310Z,1.00
2022-08-05T23:19:46.706Z,1.00
2022-08-05T23:24:48.487Z,1.00
2022-08-05T23:29:53.933Z,8.10
2022-08-05T23:35:00.821Z,14.80
2022-08-05T23:40:09.552Z,14.50
2022-08-05T23:45:15.772Z,24.70
2022-08-05T23:50:21.218Z,60.60
2022-08-05T23:55:31.178Z,99.90
